sensor_id;sensor_type;location;lat;lon;timestamp;P1;durP1;ratioP1;P2;durP2;ratioP2
16272;SDS011;8244;50.044;9.006;2023-06-10T00:03:23;12.02;;;6.50;;
16272;SDS011;8244;50.044;9.006;2023-06-10T00:08:25;10.50;;;6.35;;
16272;SDS011;8244;50.044;9.006;2023-06-10T00:13:27;9.85;;;5.97;;
16272;SDS011;8244;50.044;9.006;2023-06-10T00:18:30;9.60;;;5.80;;
16272;SDS011;8244;50.044;9.006;2023-06-10T00:23:32;9.02;;;5.85;;
16272;SDS011;8244;50.044;9.006;2023-06-10T00:28:37;11.70;;;6.40;;
16272;SDS011;8244;50.044;9.006;2023-06-10T00:33:40;8.68;;;6.15;;
16272;SDS011;8244;50.044;9.006;2023-06-10T00:38:42;8.45;;;6.30;;
16272;SDS011;8244;50.044;9.006;2023-06-10T00:43:43;8.40;;;6.15;;
16272;SDS011;8244;50.044;9.006;2023-06-10T00:48:46;10.20;;;6.38;;
16272;SDS011;8244;50.044;9.006;2023-06-10T00:53:48;9.45;;;6.60;;
16272;SDS011;8244;50.044;9.006;2023-06-10T00:58:50;9.77;;;6.90;;
16272;SDS011;8244;50.044;9.006;2023-06-10T01:03:53;11.75;;;6.57;;
16272;SDS011;8244;50.044;9.006;2023-06-10T01:08:56;10.27;;;6.60;;
16272;SDS011;8244;50.044;9.006;2023-06-10T01:14:02;9.25;;;6.90;;
16272;SDS011;8244;50.044;9.006;2023-06-10T01:19:09;10.45;;;7.47;;
16272;SDS011;8244;50.044;9.006;2023-06-10T01:24:14;9.38;;;6.80;;
16272;SDS011;8244;50.044;9.006;2023-06-10T01:29:19;10.98;;;7.07;;
16272;SDS011;8244;50.044;9.006;2023-06-10T01:34:28;9.02;;;6.15;;
16272;SDS011;8244;50.044;9.006;2023-06-10T01:39:34;12.73;;;7.57;;
16272;SDS011;8244;50.044;9.006;2023-06-10T01:44:38;11.55;;;7.60;;
16272;SDS011;8244;50.044;9.006;2023-06-10T01:49:39;11.85;;;6.75;;
16272;SDS011;8244;50.044;9.006;2023-06-10T01:54:43;9.82;;;7.40;;
16272;SDS011;8244;50.044;9.006;2023-06-10T01:59:44;10.05;;;6.63;;
16272;SDS011;8244;50.044;9.006;2023-06-10T02:04:46;11.38;;;7.63;;
16272;SDS011;8244;50.044;9.006;2023-06-10T02:09:49;11.50;;;6.97;;
16272;SDS011;8244;50.044;9.006;2023-06-10T02:14:51;13.55;;;7.60;;
16272;SDS011;8244;50.044;9.006;2023-06-10T02:19:52;10.02;;;7.38;;
16272;SDS011;8244;50.044;9.006;2023-06-10T02:24:55;10.55;;;8.30;;
16272;SDS011;8244;50.044;9.006;2023-06-10T02:29:57;11.68;;;8.05;;
16272;SDS011;8244;50.044;9.006;2023-06-10T02:34:59;10.48;;;7.75;;
16272;SDS011;8244;50.044;9.006;2023-06-10T02:40:03;14.52;;;8.50;;
16272;SDS011;8244;50.044;9.006;2023-06-10T02:45:06;11.02;;;7.63;;
16272;SDS011;8244;50.044;9.006;2023-06-10T02:50:09;11.55;;;8.35;;
16272;SDS011;8244;50.044;9.006;2023-06-10T02:55:12;11.18;;;8.35;;
16272;SDS011;8244;50.044;9.006;2023-06-10T03:00:14;11.65;;;8.00;;
16272;SDS011;8244;50.044;9.006;2023-06-10T03:05:17;10.93;;;7.78;;
16272;SDS011;8244;50.044;9.006;2023-06-10T03:10:20;11.55;;;8.98;;
16272;SDS011;8244;50.044;9.006;2023-06-10T03:15:22;13.43;;;7.85;;
16272;SDS011;8244;50.044;9.006;2023-06-10T03:20:24;12.27;;;7.93;;
16272;SDS011;8244;50.044;9.006;2023-06-10T03:25:29;13.50;;;9.18;;
16272;SDS011;8244;50.044;9.006;2023-06-10T03:30:31;13.60;;;8.90;;
16272;SDS011;8244;50.044;9.006;2023-06-10T03:35:32;12.30;;;9.88;;
16272;SDS011;8244;50.044;9.006;2023-06-10T03:40:36;12.93;;;9.90;;
16272;SDS011;8244;50.044;9.006;2023-06-10T03:45:38;12.80;;;9.10;;
16272;SDS011;8244;50.044;9.006;2023-06-10T03:50:41;14.60;;;9.82;;
16272;SDS011;8244;50.044;9.006;2023-06-10T03:55:44;13.05;;;9.55;;
16272;SDS011;8244;50.044;9.006;2023-06-10T04:00:45;13.73;;;9.75;;
16272;SDS011;8244;50.044;9.006;2023-06-10T04:05:48;13.15;;;9.88;;
16272;SDS011;8244;50.044;9.006;2023-06-10T04:10:51;13.43;;;9.60;;
16272;SDS011;8244;50.044;9.006;2023-06-10T04:15:53;13.25;;;10.23;;
16272;SDS011;8244;50.044;9.006;2023-06-10T04:20:55;13.10;;;10.25;;
16272;SDS011;8244;50.044;9.006;2023-06-10T04:25:58;11.23;;;9.02;;
16272;SDS011;8244;50.044;9.006;2023-06-10T04:31:00;14.82;;;10.45;;
16272;SDS011;8244;50.044;9.006;2023-06-10T04:36:04;12.93;;;9.80;;
16272;SDS011;8244;50.044;9.006;2023-06-10T04:41:08;13.40;;;9.73;;
16272;SDS011;8244;50.044;9.006;2023-06-10T04:46:09;13.88;;;11.13;;
16272;SDS011;8244;50.044;9.006;2023-06-10T04:51:13;13.55;;;10.10;;
16272;SDS011;8244;50.044;9.006;2023-06-10T04:56:16;12.23;;;9.88;;
16272;SDS011;8244;50.044;9.006;2023-06-10T05:01:18;15.00;;;10.43;;
16272;SDS011;8244;50.044;9.006;2023-06-10T05:06:19;12.27;;;9.77;;
16272;SDS011;8244;50.044;9.006;2023-06-10T05:11:22;12.07;;;9.13;;
16272;SDS011;8244;50.044;9.006;2023-06-10T05:16:24;14.35;;;9.35;;
16272;SDS011;8244;50.044;9.006;2023-06-10T05:21:26;12.60;;;8.85;;
16272;SDS011;8244;50.044;9.006;2023-06-10T05:26:28;12.98;;;8.45;;
16272;SDS011;8244;50.044;9.006;2023-06-10T05:31:31;12.68;;;8.68;;
16272;SDS011;8244;50.044;9.006;2023-06-10T05:36:33;10.80;;;8.45;;
16272;SDS011;8244;50.044;9.006;2023-06-10T05:41:36;12.60;;;8.02;;
16272;SDS011;8244;50.044;9.006;2023-06-10T05:46:38;10.60;;;7.50;;
16272;SDS011;8244;50.044;9.006;2023-06-10T05:51:39;8.98;;;6.50;;
16272;SDS011;8244;50.044;9.006;2023-06-10T05:56:42;8.27;;;5.68;;
16272;SDS011;8244;50.044;9.006;2023-06-10T06:01:44;7.82;;;5.22;;
16272;SDS011;8244;50.044;9.006;2023-06-10T06:06:45;8.35;;;5.35;;
16272;SDS011;8244;50.044;9.006;2023-06-10T06:11:48;7.35;;;5.10;;
16272;SDS011;8244;50.044;9.006;2023-06-10T06:16:50;9.65;;;5.20;;
16272;SDS011;8244;50.044;9.006;2023-06-10T06:21:52;7.00;;;4.97;;
16272;SDS011;8244;50.044;9.006;2023-06-10T06:26:55;8.05;;;5.22;;
16272;SDS011;8244;50.044;9.006;2023-06-10T06:31:56;7.43;;;4.72;;
16272;SDS011;8244;50.044;9.006;2023-06-10T06:36:58;5.90;;;4.50;;
16272;SDS011;8244;50.044;9.006;2023-06-10T06:42:01;9.32;;;4.97;;
16272;SDS011;8244;50.044;9.006;2023-06-10T06:47:03;7.18;;;4.35;;
16272;SDS011;8244;50.044;9.006;2023-06-10T06:52:06;6.20;;;4.53;;
16272;SDS011;8244;50.044;9.006;2023-06-10T06:57:09;5.57;;;4.03;;
16272;SDS011;8244;50.044;9.006;2023-06-10T07:02:11;6.20;;;4.40;;
16272;SDS011;8244;50.044;9.006;2023-06-10T07:07:13;7.72;;;4.55;;
16272;SDS011;8244;50.044;9.006;2023-06-10T07:12:16;5.30;;;4.30;;
16272;SDS011;8244;50.044;9.006;2023-06-10T07:17:18;7.68;;;4.55;;
16272;SDS011;8244;50.044;9.006;2023-06-10T07:22:20;5.43;;;4.38;;
16272;SDS011;8244;50.044;9.006;2023-06-10T07:27:23;7.20;;;5.10;;
16272;SDS011;8244;50.044;9.006;2023-06-10T07:32:25;6.97;;;4.70;;
16272;SDS011;8244;50.044;9.006;2023-06-10T07:37:26;8.30;;;4.25;;
16272;SDS011;8244;50.044;9.006;2023-06-10T07:47:33;9.77;;;4.25;;
16272;SDS011;8244;50.044;9.006;2023-06-10T07:52:34;5.15;;;3.80;;
16272;SDS011;8244;50.044;9.006;2023-06-10T07:57:36;6.18;;;4.35;;
16272;SDS011;8244;50.044;9.006;2023-06-10T08:02:39;7.70;;;4.50;;
16272;SDS011;8244;50.044;9.006;2023-06-10T08:07:42;7.35;;;4.43;;
16272;SDS011;8244;50.044;9.006;2023-06-10T08:12:43;7.97;;;4.65;;
16272;SDS011;8244;50.044;9.006;2023-06-10T08:17:46;7.03;;;4.57;;
16272;SDS011;8244;50.044;9.006;2023-06-10T08:22:48;5.50;;;4.30;;
16272;SDS011;8244;50.044;9.006;2023-06-10T08:27:50;5.60;;;3.97;;
16272;SDS011;8244;50.044;9.006;2023-06-10T08:32:53;6.65;;;4.22;;
16272;SDS011;8244;50.044;9.006;2023-06-10T08:37:55;6.28;;;4.38;;
16272;SDS011;8244;50.044;9.006;2023-06-10T08:43:00;5.43;;;4.30;;
16272;SDS011;8244;50.044;9.006;2023-06-10T08:48:07;7.47;;;4.40;;
16272;SDS011;8244;50.044;9.006;2023-06-10T08:53:10;7.75;;;4.43;;
16272;SDS011;8244;50.044;9.006;2023-06-10T08:58:18;8.43;;;3.83;;
16272;SDS011;8244;50.044;9.006;2023-06-10T09:03:22;5.22;;;3.95;;
16272;SDS011;8244;50.044;9.006;2023-06-10T09:08:25;5.40;;;4.07;;
16272;SDS011;8244;50.044;9.006;2023-06-10T09:13:27;5.93;;;4.15;;
16272;SDS011;8244;50.044;9.006;2023-06-10T09:18:30;7.05;;;3.95;;
16272;SDS011;8244;50.044;9.006;2023-06-10T09:23:32;8.70;;;3.58;;
16272;SDS011;8244;50.044;9.006;2023-06-10T09:28:34;6.93;;;3.33;;
16272;SDS011;8244;50.044;9.006;2023-06-10T09:33:38;4.72;;;3.13;;
16272;SDS011;8244;50.044;9.006;2023-06-10T09:38:40;3.83;;;3.20;;
16272;SDS011;8244;50.044;9.006;2023-06-10T09:43:42;5.03;;;3.30;;
16272;SDS011;8244;50.044;9.006;2023-06-10T09:48:46;5.40;;;3.30;;
16272;SDS011;8244;50.044;9.006;2023-06-10T09:53:49;4.10;;;3.20;;
16272;SDS011;8244;50.044;9.006;2023-06-10T09:58:52;5.60;;;3.30;;
16272;SDS011;8244;50.044;9.006;2023-06-10T10:03:55;8.88;;;3.10;;
16272;SDS011;8244;50.044;9.006;2023-06-10T10:08:57;4.95;;;3.20;;
16272;SDS011;8244;50.044;9.006;2023-06-10T10:13:59;3.67;;;2.70;;
16272;SDS011;8244;50.044;9.006;2023-06-10T10:19:04;6.07;;;2.65;;
16272;SDS011;8244;50.044;9.006;2023-06-10T10:24:09;6.18;;;2.50;;
16272;SDS011;8244;50.044;9.006;2023-06-10T10:29:20;5.57;;;3.00;;
16272;SDS011;8244;50.044;9.006;2023-06-10T10:34:29;4.88;;;2.60;;
16272;SDS011;8244;50.044;9.006;2023-06-10T10:39:36;4.30;;;2.50;;
16272;SDS011;8244;50.044;9.006;2023-06-10T10:44:38;5.00;;;2.65;;
16272;SDS011;8244;50.044;9.006;2023-06-10T10:49:43;3.35;;;2.70;;
16272;SDS011;8244;50.044;9.006;2023-06-10T10:54:46;4.95;;;3.05;;
16272;SDS011;8244;50.044;9.006;2023-06-10T10:59:52;4.88;;;2.65;;
16272;SDS011;8244;50.044;9.006;2023-06-10T11:05:01;4.25;;;2.67;;
16272;SDS011;8244;50.044;9.006;2023-06-10T11:10:06;4.97;;;2.78;;
16272;SDS011;8244;50.044;9.006;2023-06-10T11:15:09;4.50;;;2.90;;
16272;SDS011;8244;50.044;9.006;2023-06-10T11:20:12;5.50;;;3.92;;
16272;SDS011;8244;50.044;9.006;2023-06-10T11:25:45;5.78;;;2.70;;
16272;SDS011;8244;50.044;9.006;2023-06-10T11:30:47;4.88;;;3.00;;
16272;SDS011;8244;50.044;9.006;2023-06-10T11:36:00;5.30;;;3.08;;
16272;SDS011;8244;50.044;9.006;2023-06-10T11:41:07;7.28;;;3.88;;
16272;SDS011;8244;50.044;9.006;2023-06-10T11:46:09;3.78;;;3.03;;
16272;SDS011;8244;50.044;9.006;2023-06-10T11:51:12;6.72;;;3.33;;
16272;SDS011;8244;50.044;9.006;2023-06-10T11:56:15;4.28;;;2.83;;
16272;SDS011;8244;50.044;9.006;2023-06-10T12:01:21;5.68;;;3.25;;
16272;SDS011;8244;50.044;9.006;2023-06-10T12:06:24;5.50;;;3.20;;
16272;SDS011;8244;50.044;9.006;2023-06-10T12:11:26;4.82;;;3.13;;
16272;SDS011;8244;50.044;9.006;2023-06-10T12:16:28;4.45;;;3.13;;
16272;SDS011;8244;50.044;9.006;2023-06-10T12:21:32;3.75;;;3.40;;
16272;SDS011;8244;50.044;9.006;2023-06-10T12:26:39;4.53;;;3.10;;
16272;SDS011;8244;50.044;9.006;2023-06-10T12:31:54;4.40;;;3.08;;
16272;SDS011;8244;50.044;9.006;2023-06-10T12:36:59;5.70;;;3.33;;
16272;SDS011;8244;50.044;9.006;2023-06-10T12:42:01;4.82;;;3.33;;
16272;SDS011;8244;50.044;9.006;2023-06-10T12:47:07;7.00;;;2.97;;
16272;SDS011;8244;50.044;9.006;2023-06-10T12:52:11;4.00;;;2.85;;
16272;SDS011;8244;50.044;9.006;2023-06-10T12:57:13;5.32;;;3.10;;
16272;SDS011;8244;50.044;9.006;2023-06-10T13:02:15;4.30;;;3.13;;
16272;SDS011;8244;50.044;9.006;2023-06-10T13:07:18;5.68;;;3.45;;
16272;SDS011;8244;50.044;9.006;2023-06-10T13:12:20;4.22;;;2.92;;
16272;SDS011;8244;50.044;9.006;2023-06-10T13:17:21;6.97;;;3.38;;
16272;SDS011;8244;50.044;9.006;2023-06-10T13:22:24;4.57;;;3.20;;
16272;SDS011;8244;50.044;9.006;2023-06-10T13:27:26;4.93;;;3.10;;
16272;SDS011;8244;50.044;9.006;2023-06-10T13:32:28;3.78;;;3.30;;
16272;SDS011;8244;50.044;9.006;2023-06-10T13:37:31;5.78;;;3.40;;
16272;SDS011;8244;50.044;9.006;2023-06-10T13:42:33;5.50;;;3.42;;
16272;SDS011;8244;50.044;9.006;2023-06-10T13:47:35;3.75;;;3.15;;
16272;SDS011;8244;50.044;9.006;2023-06-10T13:52:39;5.75;;;3.13;;
16272;SDS011;8244;50.044;9.006;2023-06-10T13:57:40;4.93;;;3.35;;
16272;SDS011;8244;50.044;9.006;2023-06-10T14:02:42;4.43;;;3.55;;
16272;SDS011;8244;50.044;9.006;2023-06-10T14:07:46;6.65;;;3.40;;
16272;SDS011;8244;50.044;9.006;2023-06-10T14:12:47;5.93;;;3.40;;
16272;SDS011;8244;50.044;9.006;2023-06-10T14:17:49;5.22;;;3.00;;
16272;SDS011;8244;50.044;9.006;2023-06-10T14:22:52;4.65;;;3.28;;
16272;SDS011;8244;50.044;9.006;2023-06-10T14:27:54;3.40;;;3.05;;
16272;SDS011;8244;50.044;9.006;2023-06-10T14:32:56;2.97;;;2.70;;
16272;SDS011;8244;50.044;9.006;2023-06-10T14:37:59;4.53;;;3.00;;
16272;SDS011;8244;50.044;9.006;2023-06-10T14:43:00;7.50;;;5.18;;
16272;SDS011;8244;50.044;9.006;2023-06-10T14:48:04;3.33;;;3.03;;
16272;SDS011;8244;50.044;9.006;2023-06-10T14:53:08;5.55;;;3.10;;
16272;SDS011;8244;50.044;9.006;2023-06-10T14:58:10;4.45;;;3.10;;
16272;SDS011;8244;50.044;9.006;2023-06-10T15:03:11;3.90;;;2.90;;
16272;SDS011;8244;50.044;9.006;2023-06-10T15:08:14;4.60;;;3.17;;
16272;SDS011;8244;50.044;9.006;2023-06-10T15:13:16;4.03;;;2.90;;
16272;SDS011;8244;50.044;9.006;2023-06-10T15:18:18;4.40;;;3.30;;
16272;SDS011;8244;50.044;9.006;2023-06-10T15:23:21;4.68;;;3.30;;
16272;SDS011;8244;50.044;9.006;2023-06-10T15:28:22;5.20;;;2.97;;
16272;SDS011;8244;50.044;9.006;2023-06-10T15:33:24;4.45;;;3.08;;
16272;SDS011;8244;50.044;9.006;2023-06-10T15:38:27;5.78;;;3.20;;
16272;SDS011;8244;50.044;9.006;2023-06-10T15:43:29;3.63;;;2.88;;
16272;SDS011;8244;50.044;9.006;2023-06-10T15:48:30;5.18;;;2.80;;
16272;SDS011;8244;50.044;9.006;2023-06-10T15:53:33;6.88;;;3.38;;
16272;SDS011;8244;50.044;9.006;2023-06-10T15:58:35;5.28;;;3.10;;
16272;SDS011;8244;50.044;9.006;2023-06-10T16:03:37;4.72;;;2.97;;
16272;SDS011;8244;50.044;9.006;2023-06-10T16:08:40;4.10;;;2.95;;
16272;SDS011;8244;50.044;9.006;2023-06-10T16:13:42;4.88;;;3.10;;
16272;SDS011;8244;50.044;9.006;2023-06-10T16:18:44;5.18;;;2.92;;
16272;SDS011;8244;50.044;9.006;2023-06-10T16:23:47;4.70;;;3.25;;
16272;SDS011;8244;50.044;9.006;2023-06-10T16:28:49;6.45;;;2.92;;
16272;SDS011;8244;50.044;9.006;2023-06-10T16:33:51;4.10;;;3.05;;
16272;SDS011;8244;50.044;9.006;2023-06-10T16:38:54;5.55;;;3.33;;
16272;SDS011;8244;50.044;9.006;2023-06-10T16:43:57;5.38;;;3.35;;
16272;SDS011;8244;50.044;9.006;2023-06-10T16:48:59;5.70;;;3.50;;
16272;SDS011;8244;50.044;9.006;2023-06-10T16:54:02;5.65;;;3.45;;
16272;SDS011;8244;50.044;9.006;2023-06-10T16:59:03;4.50;;;3.40;;
16272;SDS011;8244;50.044;9.006;2023-06-10T17:04:05;5.18;;;3.50;;
16272;SDS011;8244;50.044;9.006;2023-06-10T17:09:08;5.60;;;3.50;;
16272;SDS011;8244;50.044;9.006;2023-06-10T17:14:10;4.43;;;3.83;;
16272;SDS011;8244;50.044;9.006;2023-06-10T17:19:12;5.80;;;3.72;;
16272;SDS011;8244;50.044;9.006;2023-06-10T17:24:15;4.57;;;3.60;;
16272;SDS011;8244;50.044;9.006;2023-06-10T17:29:16;5.88;;;3.88;;
16272;SDS011;8244;50.044;9.006;2023-06-10T17:34:18;8.10;;;3.80;;
16272;SDS011;8244;50.044;9.006;2023-06-10T17:39:21;4.60;;;3.75;;
16272;SDS011;8244;50.044;9.006;2023-06-10T17:44:23;5.65;;;4.13;;
16272;SDS011;8244;50.044;9.006;2023-06-10T17:49:25;7.18;;;4.15;;
16272;SDS011;8244;50.044;9.006;2023-06-10T17:54:28;6.03;;;4.40;;
16272;SDS011;8244;50.044;9.006;2023-06-10T17:59:30;5.60;;;4.15;;
16272;SDS011;8244;50.044;9.006;2023-06-10T18:04:31;7.53;;;4.15;;
16272;SDS011;8244;50.044;9.006;2023-06-10T18:09:34;10.00;;;4.25;;
16272;SDS011;8244;50.044;9.006;2023-06-10T18:14:36;6.25;;;4.00;;
16272;SDS011;8244;50.044;9.006;2023-06-10T18:19:38;5.93;;;4.40;;
16272;SDS011;8244;50.044;9.006;2023-06-10T18:24:41;5.30;;;4.28;;
16272;SDS011;8244;50.044;9.006;2023-06-10T18:29:43;6.80;;;4.70;;
16272;SDS011;8244;50.044;9.006;2023-06-10T18:34:45;7.53;;;4.40;;
16272;SDS011;8244;50.044;9.006;2023-06-10T18:39:48;6.25;;;4.28;;
16272;SDS011;8244;50.044;9.006;2023-06-10T18:44:50;9.57;;;5.20;;
16272;SDS011;8244;50.044;9.006;2023-06-10T18:49:52;8.43;;;4.85;;
16272;SDS011;8244;50.044;9.006;2023-06-10T18:54:55;5.32;;;4.40;;
16272;SDS011;8244;50.044;9.006;2023-06-10T18:59:56;7.07;;;4.68;;
16272;SDS011;8244;50.044;9.006;2023-06-10T19:04:58;8.55;;;4.88;;
16272;SDS011;8244;50.044;9.006;2023-06-10T19:10:01;6.53;;;4.70;;
16272;SDS011;8244;50.044;9.006;2023-06-10T19:15:03;5.97;;;4.90;;
16272;SDS011;8244;50.044;9.006;2023-06-10T19:20:06;7.78;;;4.65;;
16272;SDS011;8244;50.044;9.006;2023-06-10T19:25:10;7.25;;;5.35;;
16272;SDS011;8244;50.044;9.006;2023-06-10T19:30:12;8.15;;;4.95;;
16272;SDS011;8244;50.044;9.006;2023-06-10T19:35:14;8.68;;;5.00;;
16272;SDS011;8244;50.044;9.006;2023-06-10T19:40:17;7.30;;;5.30;;
16272;SDS011;8244;50.044;9.006;2023-06-10T19:45:19;8.95;;;5.00;;
16272;SDS011;8244;50.044;9.006;2023-06-10T19:50:21;7.50;;;5.35;;
16272;SDS011;8244;50.044;9.006;2023-06-10T19:55:24;7.07;;;5.20;;
16272;SDS011;8244;50.044;9.006;2023-06-10T20:00:26;7.80;;;5.85;;
16272;SDS011;8244;50.044;9.006;2023-06-10T20:05:28;9.35;;;5.93;;
16272;SDS011;8244;50.044;9.006;2023-06-10T20:10:31;8.07;;;5.78;;
16272;SDS011;8244;50.044;9.006;2023-06-10T20:15:33;9.18;;;5.50;;
16272;SDS011;8244;50.044;9.006;2023-06-10T20:20:35;8.07;;;5.38;;
16272;SDS011;8244;50.044;9.006;2023-06-10T20:25:38;10.52;;;5.72;;
16272;SDS011;8244;50.044;9.006;2023-06-10T20:30:40;6.75;;;5.28;;
16272;SDS011;8244;50.044;9.006;2023-06-10T20:35:42;8.63;;;5.78;;
16272;SDS011;8244;50.044;9.006;2023-06-10T20:40:45;7.10;;;5.20;;
16272;SDS011;8244;50.044;9.006;2023-06-10T20:45:47;7.57;;;5.38;;
16272;SDS011;8244;50.044;9.006;2023-06-10T20:50:49;6.40;;;5.00;;
16272;SDS011;8244;50.044;9.006;2023-06-10T20:55:52;8.27;;;6.05;;
16272;SDS011;8244;50.044;9.006;2023-06-10T21:00:54;7.78;;;6.13;;
16272;SDS011;8244;50.044;9.006;2023-06-10T21:05:56;8.65;;;5.75;;
16272;SDS011;8244;50.044;9.006;2023-06-10T21:10:59;6.13;;;5.15;;
16272;SDS011;8244;50.044;9.006;2023-06-10T21:16:00;6.75;;;5.60;;
16272;SDS011;8244;50.044;9.006;2023-06-10T21:21:02;9.65;;;5.35;;
16272;SDS011;8244;50.044;9.006;2023-06-10T21:26:05;8.35;;;5.68;;
16272;SDS011;8244;50.044;9.006;2023-06-10T21:31:07;6.88;;;5.38;;
16272;SDS011;8244;50.044;9.006;2023-06-10T21:36:09;7.47;;;5.28;;
16272;SDS011;8244;50.044;9.006;2023-06-10T21:41:12;6.97;;;5.53;;
16272;SDS011;8244;50.044;9.006;2023-06-10T21:46:14;6.53;;;5.22;;
16272;SDS011;8244;50.044;9.006;2023-06-10T21:51:16;9.55;;;6.28;;
16272;SDS011;8244;50.044;9.006;2023-06-10T21:56:19;7.50;;;5.72;;
16272;SDS011;8244;50.044;9.006;2023-06-10T22:01:21;8.45;;;6.10;;
16272;SDS011;8244;50.044;9.006;2023-06-10T22:06:23;8.80;;;6.43;;
16272;SDS011;8244;50.044;9.006;2023-06-10T22:11:26;5.88;;;5.25;;
16272;SDS011;8244;50.044;9.006;2023-06-10T22:16:28;8.68;;;5.78;;
16272;SDS011;8244;50.044;9.006;2023-06-10T22:21:30;8.95;;;6.00;;
16272;SDS011;8244;50.044;9.006;2023-06-10T22:26:33;6.18;;;5.22;;
16272;SDS011;8244;50.044;9.006;2023-06-10T22:31:34;8.55;;;5.63;;
16272;SDS011;8244;50.044;9.006;2023-06-10T22:36:36;7.90;;;5.43;;
16272;SDS011;8244;50.044;9.006;2023-06-10T22:41:39;7.72;;;5.18;;
16272;SDS011;8244;50.044;9.006;2023-06-10T22:46:42;8.20;;;5.13;;
16272;SDS011;8244;50.044;9.006;2023-06-10T22:51:43;7.75;;;5.00;;
16272;SDS011;8244;50.044;9.006;2023-06-10T22:56:48;6.93;;;4.82;;
16272;SDS011;8244;50.044;9.006;2023-06-10T23:01:50;9.70;;;5.30;;
16272;SDS011;8244;50.044;9.006;2023-06-10T23:06:51;8.43;;;5.25;;
16272;SDS011;8244;50.044;9.006;2023-06-10T23:11:54;7.28;;;5.15;;
16272;SDS011;8244;50.044;9.006;2023-06-10T23:16:56;6.72;;;4.70;;
16272;SDS011;8244;50.044;9.006;2023-06-10T23:21:58;8.07;;;5.55;;
16272;SDS011;8244;50.044;9.006;2023-06-10T23:27:01;6.85;;;5.50;;
16272;SDS011;8244;50.044;9.006;2023-06-10T23:32:05;7.35;;;5.55;;
16272;SDS011;8244;50.044;9.006;2023-06-10T23:37:07;6.55;;;5.20;;
16272;SDS011;8244;50.044;9.006;2023-06-10T23:42:12;7.40;;;5.13;;
16272;SDS011;8244;50.044;9.006;2023-06-10T23:47:13;8.55;;;4.80;;
16272;SDS011;8244;50.044;9.006;2023-06-10T23:52:15;8.40;;;5.28;;
16272;SDS011;8244;50.044;9.006;2023-06-10T23:57:21;7.95;;;4.97;;
